createdAt,value
2023-06-29T00:02:29.715Z,19
2023-06-29T00:07:15.202Z,17
2023-06-29T00:12:15.193Z,24
2023-06-29T00:17:15.207Z,27
2023-06-29T00:22:15.197Z,27
2023-06-29T00:27:15.209Z,23
2023-06-29T00:32:15.211Z,28
2023-06-29T00:37:15.213Z,25
2023-06-29T00:42:15.216Z,26
2023-06-29T00:47:15.206Z,22
2023-06-29T00:52:15.218Z,22
2023-06-29T00:57:15.209Z,20
2023-06-29T01:02:15.222Z,25
2023-06-29T01:07:15.223Z,18
2023-06-29T01:12:15.214Z,11
2023-06-29T01:17:15.228Z,19
2023-06-29T01:22:15.218Z,20
2023-06-29T01:27:15.230Z,17
2023-06-29T01:32:15.232Z,21
2023-06-29T01:37:15.234Z,21
2023-06-29T01:42:15.236Z,20
2023-06-29T01:47:15.226Z,22
2023-06-29T01:52:15.239Z,20
2023-06-29T01:57:15.229Z,15
2023-06-29T02:02:15.266Z,24
2023-06-29T02:07:15.243Z,17
2023-06-29T02:12:15.245Z,16
2023-06-29T02:17:15.248Z,19
2023-06-29T02:22:15.238Z,19
2023-06-29T02:27:15.250Z,19
2023-06-29T02:32:15.252Z,23
2023-06-29T02:37:15.253Z,22
2023-06-29T02:42:15.256Z,18
2023-06-29T02:47:15.246Z,27
2023-06-29T02:52:15.284Z,24
2023-06-29T02:57:15.249Z,19
2023-06-29T03:02:15.261Z,27
2023-06-29T03:07:15.263Z,23
2023-06-29T03:12:15.264Z,27
2023-06-29T03:17:15.267Z,30
2023-06-29T03:22:15.257Z,34
2023-06-29T03:27:15.269Z,32
2023-06-29T03:32:15.260Z,25
2023-06-29T03:37:15.272Z,31
2023-06-29T03:42:15.274Z,25
2023-06-29T03:47:15.265Z,24
2023-06-29T03:52:15.278Z,21
2023-06-29T03:57:15.268Z,10
2023-06-29T04:02:15.280Z,18
2023-06-29T04:07:15.282Z,20
2023-06-29T04:12:15.284Z,16
2023-06-29T04:17:15.286Z,30
2023-06-29T04:22:15.276Z,32
2023-06-29T04:27:15.288Z,33
2023-06-29T04:32:15.279Z,46
2023-06-29T04:37:15.292Z,39
2023-06-29T04:42:15.293Z,36
2023-06-29T04:47:15.284Z,34
2023-06-29T04:52:15.297Z,37
2023-06-29T04:57:15.287Z,32
2023-06-29T05:02:15.300Z,52
2023-06-29T05:07:15.301Z,37
2023-06-29T05:12:15.303Z,64
2023-06-29T05:17:15.306Z,55
2023-06-29T05:22:15.296Z,59
2023-06-29T05:27:15.309Z,54
2023-06-29T05:32:15.299Z,46
2023-06-29T05:37:15.312Z,45
2023-06-29T05:42:15.314Z,46
2023-06-29T05:47:15.341Z,71
2023-06-29T05:52:15.318Z,57
2023-06-29T05:57:15.309Z,72
2023-06-29T06:02:15.322Z,79
2023-06-29T06:07:15.313Z,49
2023-06-29T06:12:15.326Z,55
2023-06-29T06:17:15.328Z,59
2023-06-29T06:22:15.319Z,58
2023-06-29T06:27:15.333Z,55
2023-06-29T06:32:15.323Z,48
2023-06-29T06:37:15.336Z,60
2023-06-29T06:42:15.338Z,75
2023-06-29T06:47:15.341Z,83
2023-06-29T06:52:15.344Z,82
2023-06-29T06:57:15.334Z,89
2023-06-29T07:02:15.348Z,86
2023-06-29T07:07:15.339Z,76
2023-06-29T07:12:15.353Z,87
2023-06-29T07:17:15.355Z,104
2023-06-29T07:22:15.346Z,80
2023-06-29T07:27:15.360Z,90
2023-06-29T07:32:15.351Z,97
2023-06-29T07:37:15.365Z,108
2023-06-29T07:42:15.367Z,105
2023-06-29T07:47:15.370Z,119
2023-06-29T07:52:15.373Z,116
2023-06-29T07:57:15.364Z,115
2023-06-29T08:07:15.369Z,124
2023-06-29T08:12:15.432Z,122
2023-06-29T08:17:15.385Z,131
2023-06-29T08:22:15.429Z,132
2023-06-29T08:27:15.391Z,99
2023-06-29T08:32:15.382Z,133
2023-06-29T08:37:15.395Z,135
2023-06-29T08:42:15.387Z,135
2023-06-29T08:47:15.402Z,165
2023-06-29T08:52:15.404Z,146
2023-06-29T08:57:15.396Z,153
2023-06-29T09:02:15.410Z,196
2023-06-29T09:07:15.401Z,169
2023-06-29T09:12:15.415Z,159
2023-06-29T09:17:15.418Z,190
2023-06-29T09:22:15.421Z,160
2023-06-29T09:27:15.425Z,135
2023-06-29T09:32:15.416Z,161
2023-06-29T09:37:15.430Z,141
2023-06-29T09:42:15.422Z,135
2023-06-29T09:47:15.436Z,155
2023-06-29T09:52:15.439Z,161
2023-06-29T09:57:15.431Z,153
2023-06-29T10:02:15.446Z,176
2023-06-29T10:07:15.437Z,191
2023-06-29T10:12:15.451Z,174
2023-06-29T10:17:15.454Z,238
2023-06-29T10:22:15.457Z,202
2023-06-29T10:27:15.461Z,173
2023-06-29T10:32:15.452Z,214
2023-06-29T10:37:15.466Z,188
2023-06-29T10:42:15.458Z,199
2023-06-29T10:47:15.472Z,202
2023-06-29T10:52:15.475Z,186
2023-06-29T10:57:15.503Z,180
2023-06-29T11:02:15.482Z,208
2023-06-29T11:07:15.473Z,210
2023-06-29T11:12:15.487Z,183
2023-06-29T11:17:15.479Z,221
2023-06-29T11:22:15.493Z,203
2023-06-29T11:27:15.562Z,189
2023-06-29T11:32:15.488Z,207
2023-06-29T11:37:15.546Z,183
2023-06-29T11:42:15.494Z,159
2023-06-29T11:47:15.508Z,180
2023-06-29T11:52:15.511Z,158
2023-06-29T11:57:15.515Z,139
2023-06-29T12:02:15.518Z,136
2023-06-29T12:12:15.524Z,134
2023-06-29T12:17:15.516Z,133
2023-06-29T12:22:15.530Z,157
2023-06-29T12:27:15.533Z,140
2023-06-29T12:32:15.525Z,175
2023-06-29T20:26:40.128Z,94
2023-06-29T20:27:31.610Z,78
2023-06-29T20:32:15.809Z,113
2023-06-29T20:37:15.812Z,65
2023-06-29T20:42:15.815Z,73
2023-06-29T20:47:15.806Z,93
2023-06-29T20:52:15.819Z,69
2023-06-29T20:57:15.811Z,63
2023-06-29T21:02:15.824Z,63
2023-06-29T21:07:15.827Z,52
2023-06-29T21:12:15.854Z,52
2023-06-29T21:17:15.833Z,60
2023-06-29T21:22:15.824Z,61
2023-06-29T21:27:15.837Z,62
2023-06-29T21:32:15.839Z,61
2023-06-29T21:37:15.842Z,44
2023-06-29T21:42:15.869Z,39
2023-06-29T21:47:15.836Z,36
2023-06-29T21:52:15.851Z,33
2023-06-29T21:57:15.841Z,44
2023-06-29T22:02:15.854Z,58
2023-06-29T22:07:15.857Z,42
2023-06-29T22:12:15.859Z,44
2023-06-29T22:17:15.862Z,26
2023-06-29T22:22:15.853Z,21
2023-06-29T22:27:15.867Z,21
2023-06-29T22:32:15.858Z,26
2023-06-29T22:37:15.872Z,23
2023-06-29T22:42:15.874Z,19
2023-06-29T22:47:15.865Z,16
2023-06-29T22:52:15.879Z,13
2023-06-29T22:57:15.870Z,15
2023-06-29T23:02:15.884Z,20
2023-06-29T23:07:15.886Z,20
2023-06-29T23:12:15.888Z,21
2023-06-29T23:17:15.891Z,19
2023-06-29T23:22:15.882Z,21
2023-06-29T23:27:15.896Z,24
2023-06-29T23:32:15.887Z,25
2023-06-29T23:37:15.900Z,21
2023-06-29T23:42:15.903Z,24
2023-06-29T23:47:15.894Z,18
2023-06-29T23:52:15.908Z,14
2023-06-29T23:57:15.899Z,13
